עמוד ראשי
METAR-TAF:

METAR-TAF

שדות תעופה :

Point Lay, אלסקה, ארצות הברית

קו רוחב: 69-43N, קו אורך: 163-00W, גובה: 8מטר

תצפית מזג אוויר נוכחית

הדו"ח נערך לפני 24דקות, בשעה 18:56 UTC
רוח 17קשר מכיוון צפון-מזרח
טמפרטורת 9 צלסיוס
לחות 76%
לחץ 1021 hPa
ראות: 16.1קילומטר
שמיים נקיים

METAR: PPIZ 201856Z AUTO 04017KT 10SM CLR 09/05 A3014 RMK AO2 SLP210 T00940050

זמן: 11:20 (19:20 UTC)


TAF: חסר

תצפיות ותחזיות מזג אוויר לגבי יותר מ- 4,000 שדות תעופה ברחבי העולם. דוחות METAR ו- TAF.

התחנות הזמינות מסומנות בנקודות צהובות ואדומות על גבי המפה.

העבר את העכבר לנקודה הצבעונית על מנת לראות את שם התחנה.

לאחר מכן, לחץ כדי לראות את תוכן ואת תחזיות מזג האוויר.

כדי לשנות את המפה: לחץ על הכפתורים הירוקים עם הפלוס השחור כדי להתקרב; על הכפתור הירוק עם המקף כדי להתרחק; או בחיצים הירוקים למפות סמוכות.


METAR-TAF: